Terminal Aerodrome Forecast
Issued by NWS Green Bay, WI

Home | Current Version | Previous Version | Graphics & Text | Print | Product List | Glossary On
Versions: 1 2 3 4 5 6 7 8 9 10 11 12 13 14 15 16 17 18
000
FTUS43 KGRB 172320
TAFGRB
TAF
KGRB 172320Z 1800/1824 23014G21KT P6SM SKC WS020/28055KT
     FM180500 24009KT P6SM SKC WS020/30040KT
     FM181200 24008KT P6SM SCT250
     FM181600 24009KT P6SM SCT070 SCT250 WS020/28050KT=

USA.gov is the U.S. government's official web portal to all federal, state and local government web resources and services.